sensor_id;sensor_type;location;lat;lon;timestamp;P1;durP1;ratioP1;P2;durP2;ratioP2
13345;SDS011;6742;48.036;15.780;2022-07-23T00:00:42;10.57;;;9.67;;
13345;SDS011;6742;48.036;15.780;2022-07-23T00:03:09;11.40;;;10.40;;
13345;SDS011;6742;48.036;15.780;2022-07-23T00:05:36;10.70;;;9.70;;
13345;SDS011;6742;48.036;15.780;2022-07-23T00:08:03;11.50;;;10.50;;
13345;SDS011;6742;48.036;15.780;2022-07-23T00:10:31;10.70;;;9.80;;
13345;SDS011;6742;48.036;15.780;2022-07-23T00:12:58;11.17;;;10.07;;
13345;SDS011;6742;48.036;15.780;2022-07-23T00:15:26;10.47;;;9.67;;
13345;SDS011;6742;48.036;15.780;2022-07-23T00:17:53;10.73;;;9.73;;
13345;SDS011;6742;48.036;15.780;2022-07-23T00:20:21;10.97;;;10.07;;
13345;SDS011;6742;48.036;15.780;2022-07-23T00:22:48;11.33;;;10.27;;
13345;SDS011;6742;48.036;15.780;2022-07-23T00:25:15;10.97;;;9.87;;
13345;SDS011;6742;48.036;15.780;2022-07-23T00:27:42;11.27;;;10.10;;
13345;SDS011;6742;48.036;15.780;2022-07-23T00:30:10;10.30;;;9.30;;
13345;SDS011;6742;48.036;15.780;2022-07-23T00:32:46;10.67;;;9.77;;
13345;SDS011;6742;48.036;15.780;2022-07-23T00:35:14;10.57;;;9.67;;
13345;SDS011;6742;48.036;15.780;2022-07-23T00:37:41;11.20;;;10.20;;
13345;SDS011;6742;48.036;15.780;2022-07-23T00:40:09;10.43;;;9.57;;
13345;SDS011;6742;48.036;15.780;2022-07-23T00:42:37;11.93;;;10.83;;
13345;SDS011;6742;48.036;15.780;2022-07-23T00:45:07;10.70;;;9.63;;
13345;SDS011;6742;48.036;15.780;2022-07-23T00:47:35;10.83;;;9.80;;
13345;SDS011;6742;48.036;15.780;2022-07-23T00:50:07;11.10;;;10.10;;
13345;SDS011;6742;48.036;15.780;2022-07-23T00:52:36;10.30;;;9.40;;
13345;SDS011;6742;48.036;15.780;2022-07-23T00:55:04;11.63;;;10.53;;
13345;SDS011;6742;48.036;15.780;2022-07-23T00:57:32;10.87;;;9.43;;
13345;SDS011;6742;48.036;15.780;2022-07-23T00:59:59;11.17;;;10.07;;
13345;SDS011;6742;48.036;15.780;2022-07-23T01:02:26;10.57;;;9.70;;
13345;SDS011;6742;48.036;15.780;2022-07-23T01:04:53;10.80;;;9.70;;
13345;SDS011;6742;48.036;15.780;2022-07-23T01:07:22;10.87;;;9.90;;
13345;SDS011;6742;48.036;15.780;2022-07-23T01:09:50;10.83;;;9.93;;
13345;SDS011;6742;48.036;15.780;2022-07-23T01:12:18;11.40;;;10.40;;
13345;SDS011;6742;48.036;15.780;2022-07-23T01:14:45;11.57;;;10.57;;
13345;SDS011;6742;48.036;15.780;2022-07-23T01:17:19;10.87;;;9.90;;
13345;SDS011;6742;48.036;15.780;2022-07-23T01:19:46;11.23;;;10.10;;
13345;SDS011;6742;48.036;15.780;2022-07-23T01:22:13;9.80;;;9.00;;
13345;SDS011;6742;48.036;15.780;2022-07-23T01:24:44;11.73;;;10.63;;
13345;SDS011;6742;48.036;15.780;2022-07-23T01:27:11;11.43;;;10.40;;
13345;SDS011;6742;48.036;15.780;2022-07-23T01:29:39;11.33;;;10.43;;
13345;SDS011;6742;48.036;15.780;2022-07-23T01:32:06;11.27;;;10.37;;
13345;SDS011;6742;48.036;15.780;2022-07-23T01:34:33;11.10;;;10.10;;
13345;SDS011;6742;48.036;15.780;2022-07-23T01:37:03;11.67;;;10.20;;
13345;SDS011;6742;48.036;15.780;2022-07-23T01:39:30;11.73;;;10.73;;
13345;SDS011;6742;48.036;15.780;2022-07-23T01:41:58;10.83;;;9.93;;
13345;SDS011;6742;48.036;15.780;2022-07-23T01:44:25;10.80;;;9.90;;
13345;SDS011;6742;48.036;15.780;2022-07-23T01:46:52;11.33;;;10.33;;
13345;SDS011;6742;48.036;15.780;2022-07-23T01:49:19;11.43;;;10.33;;
13345;SDS011;6742;48.036;15.780;2022-07-23T01:51:46;12.07;;;10.97;;
13345;SDS011;6742;48.036;15.780;2022-07-23T01:54:32;10.70;;;9.80;;
13345;SDS011;6742;48.036;15.780;2022-07-23T01:57:01;11.57;;;10.43;;
13345;SDS011;6742;48.036;15.780;2022-07-23T01:59:28;11.87;;;10.80;;
13345;SDS011;6742;48.036;15.780;2022-07-23T02:01:55;11.60;;;10.60;;
13345;SDS011;6742;48.036;15.780;2022-07-23T02:04:23;11.20;;;10.20;;
13345;SDS011;6742;48.036;15.780;2022-07-23T02:06:51;11.00;;;10.10;;
13345;SDS011;6742;48.036;15.780;2022-07-23T02:09:18;12.53;;;10.63;;
13345;SDS011;6742;48.036;15.780;2022-07-23T02:11:46;11.43;;;10.43;;
13345;SDS011;6742;48.036;15.780;2022-07-23T02:14:15;11.63;;;10.53;;
13345;SDS011;6742;48.036;15.780;2022-07-23T02:16:45;12.17;;;11.07;;
13345;SDS011;6742;48.036;15.780;2022-07-23T02:19:12;12.47;;;11.37;;
13345;SDS011;6742;48.036;15.780;2022-07-23T02:21:39;11.97;;;10.87;;
13345;SDS011;6742;48.036;15.780;2022-07-23T02:24:06;12.13;;;11.13;;
13345;SDS011;6742;48.036;15.780;2022-07-23T02:26:33;11.67;;;10.67;;
13345;SDS011;6742;48.036;15.780;2022-07-23T02:29:00;11.37;;;10.37;;
13345;SDS011;6742;48.036;15.780;2022-07-23T02:31:32;11.03;;;10.03;;
13345;SDS011;6742;48.036;15.780;2022-07-23T02:33:59;11.93;;;10.83;;
13345;SDS011;6742;48.036;15.780;2022-07-23T02:36:26;11.23;;;10.33;;
13345;SDS011;6742;48.036;15.780;2022-07-23T02:38:54;11.13;;;10.03;;
13345;SDS011;6742;48.036;15.780;2022-07-23T02:41:21;11.47;;;10.37;;
13345;SDS011;6742;48.036;15.780;2022-07-23T02:43:48;11.00;;;10.10;;
13345;SDS011;6742;48.036;15.780;2022-07-23T02:46:16;12.17;;;11.07;;
13345;SDS011;6742;48.036;15.780;2022-07-23T02:48:44;10.60;;;9.70;;
13345;SDS011;6742;48.036;15.780;2022-07-23T02:51:11;11.20;;;10.20;;
13345;SDS011;6742;48.036;15.780;2022-07-23T02:53:38;11.50;;;10.60;;
13345;SDS011;6742;48.036;15.780;2022-07-23T02:56:05;11.90;;;10.67;;
13345;SDS011;6742;48.036;15.780;2022-07-23T02:58:32;11.27;;;10.27;;
13345;SDS011;6742;48.036;15.780;2022-07-23T03:00:59;11.77;;;10.67;;
13345;SDS011;6742;48.036;15.780;2022-07-23T03:03:26;12.20;;;11.00;;
13345;SDS011;6742;48.036;15.780;2022-07-23T03:05:57;12.20;;;11.10;;
13345;SDS011;6742;48.036;15.780;2022-07-23T03:08:24;11.53;;;10.43;;
13345;SDS011;6742;48.036;15.780;2022-07-23T03:10:51;10.63;;;9.73;;
13345;SDS011;6742;48.036;15.780;2022-07-23T03:13:21;10.70;;;9.67;;
13345;SDS011;6742;48.036;15.780;2022-07-23T03:15:48;12.13;;;10.97;;
13345;SDS011;6742;48.036;15.780;2022-07-23T03:18:15;11.60;;;10.70;;
13345;SDS011;6742;48.036;15.780;2022-07-23T03:20:45;11.90;;;10.90;;
13345;SDS011;6742;48.036;15.780;2022-07-23T03:23:15;11.40;;;10.30;;
13345;SDS011;6742;48.036;15.780;2022-07-23T03:25:42;10.90;;;10.00;;
13345;SDS011;6742;48.036;15.780;2022-07-23T03:28:09;12.33;;;11.07;;
13345;SDS011;6742;48.036;15.780;2022-07-23T03:30:36;11.83;;;10.67;;
13345;SDS011;6742;48.036;15.780;2022-07-23T03:33:03;11.63;;;10.57;;
13345;SDS011;6742;48.036;15.780;2022-07-23T03:35:30;11.77;;;10.67;;
13345;SDS011;6742;48.036;15.780;2022-07-23T03:37:57;11.50;;;10.40;;
13345;SDS011;6742;48.036;15.780;2022-07-23T03:40:26;11.97;;;10.97;;
13345;SDS011;6742;48.036;15.780;2022-07-23T03:42:53;11.67;;;10.67;;
13345;SDS011;6742;48.036;15.780;2022-07-23T03:45:20;10.90;;;9.83;;
13345;SDS011;6742;48.036;15.780;2022-07-23T03:47:47;11.27;;;10.27;;
13345;SDS011;6742;48.036;15.780;2022-07-23T03:50:14;10.80;;;9.70;;
13345;SDS011;6742;48.036;15.780;2022-07-23T03:52:41;11.70;;;10.60;;
13345;SDS011;6742;48.036;15.780;2022-07-23T03:55:08;11.97;;;10.90;;
13345;SDS011;6742;48.036;15.780;2022-07-23T03:57:37;11.53;;;10.53;;
13345;SDS011;6742;48.036;15.780;2022-07-23T04:00:04;11.23;;;10.17;;
13345;SDS011;6742;48.036;15.780;2022-07-23T04:02:36;10.93;;;9.90;;
13345;SDS011;6742;48.036;15.780;2022-07-23T04:05:03;11.63;;;10.63;;
13345;SDS011;6742;48.036;15.780;2022-07-23T04:07:31;11.17;;;10.17;;
13345;SDS011;6742;48.036;15.780;2022-07-23T04:09:58;12.67;;;11.37;;
13345;SDS011;6742;48.036;15.780;2022-07-23T04:12:25;11.10;;;10.20;;
13345;SDS011;6742;48.036;15.780;2022-07-23T04:14:53;11.57;;;10.53;;
13345;SDS011;6742;48.036;15.780;2022-07-23T04:17:20;11.00;;;9.90;;
13345;SDS011;6742;48.036;15.780;2022-07-23T04:19:47;11.47;;;10.33;;
13345;SDS011;6742;48.036;15.780;2022-07-23T04:22:14;11.77;;;10.57;;
13345;SDS011;6742;48.036;15.780;2022-07-23T04:24:41;11.67;;;10.67;;
13345;SDS011;6742;48.036;15.780;2022-07-23T04:27:08;11.27;;;10.27;;
13345;SDS011;6742;48.036;15.780;2022-07-23T04:29:35;11.73;;;10.63;;
13345;SDS011;6742;48.036;15.780;2022-07-23T04:32:04;11.60;;;10.57;;
13345;SDS011;6742;48.036;15.780;2022-07-23T04:34:31;11.67;;;10.67;;
13345;SDS011;6742;48.036;15.780;2022-07-23T04:36:58;13.63;;;12.27;;
13345;SDS011;6742;48.036;15.780;2022-07-23T04:39:25;12.90;;;11.60;;
13345;SDS011;6742;48.036;15.780;2022-07-23T04:41:52;12.27;;;11.13;;
13345;SDS011;6742;48.036;15.780;2022-07-23T04:44:19;12.47;;;11.37;;
13345;SDS011;6742;48.036;15.780;2022-07-23T04:46:46;11.83;;;10.63;;
13345;SDS011;6742;48.036;15.780;2022-07-23T04:49:15;10.70;;;9.83;;
13345;SDS011;6742;48.036;15.780;2022-07-23T04:51:41;11.03;;;10.03;;
13345;SDS011;6742;48.036;15.780;2022-07-23T04:54:08;10.93;;;10.03;;
13345;SDS011;6742;48.036;15.780;2022-07-23T04:56:35;10.93;;;10.00;;
13345;SDS011;6742;48.036;15.780;2022-07-23T04:59:02;10.30;;;9.40;;
13345;SDS011;6742;48.036;15.780;2022-07-23T05:01:29;11.20;;;10.27;;
13345;SDS011;6742;48.036;15.780;2022-07-23T05:03:56;11.97;;;10.93;;
13345;SDS011;6742;48.036;15.780;2022-07-23T05:06:25;10.93;;;9.93;;
13345;SDS011;6742;48.036;15.780;2022-07-23T05:08:52;14.50;;;10.60;;
13345;SDS011;6742;48.036;15.780;2022-07-23T05:11:20;11.07;;;10.07;;
13345;SDS011;6742;48.036;15.780;2022-07-23T05:13:47;11.53;;;10.53;;
13345;SDS011;6742;48.036;15.780;2022-07-23T05:16:14;11.07;;;10.17;;
13345;SDS011;6742;48.036;15.780;2022-07-23T05:18:41;10.63;;;9.57;;
13345;SDS011;6742;48.036;15.780;2022-07-23T05:21:08;10.70;;;9.80;;
13345;SDS011;6742;48.036;15.780;2022-07-23T05:23:39;11.23;;;10.30;;
13345;SDS011;6742;48.036;15.780;2022-07-23T05:26:06;11.40;;;10.37;;
13345;SDS011;6742;48.036;15.780;2022-07-23T05:28:33;11.20;;;10.23;;
13345;SDS011;6742;48.036;15.780;2022-07-23T05:31:00;11.00;;;10.10;;
13345;SDS011;6742;48.036;15.780;2022-07-23T05:33:28;11.70;;;10.60;;
13345;SDS011;6742;48.036;15.780;2022-07-23T05:36:00;11.47;;;10.47;;
13345;SDS011;6742;48.036;15.780;2022-07-23T05:38:27;11.80;;;10.77;;
13345;SDS011;6742;48.036;15.780;2022-07-23T05:40:56;11.53;;;10.40;;
13345;SDS011;6742;48.036;15.780;2022-07-23T05:43:23;11.80;;;10.63;;
13345;SDS011;6742;48.036;15.780;2022-07-23T05:45:50;10.87;;;9.93;;
13345;SDS011;6742;48.036;15.780;2022-07-23T05:48:17;10.63;;;9.73;;
13345;SDS011;6742;48.036;15.780;2022-07-23T05:50:45;12.07;;;10.93;;
13345;SDS011;6742;48.036;15.780;2022-07-23T05:53:13;11.77;;;10.77;;
13345;SDS011;6742;48.036;15.780;2022-07-23T05:55:40;12.40;;;11.27;;
13345;SDS011;6742;48.036;15.780;2022-07-23T05:58:08;11.47;;;10.33;;
13345;SDS011;6742;48.036;15.780;2022-07-23T06:00:35;11.57;;;10.50;;
13345;SDS011;6742;48.036;15.780;2022-07-23T06:03:02;10.77;;;9.50;;
13345;SDS011;6742;48.036;15.780;2022-07-23T06:05:29;10.40;;;9.50;;
13345;SDS011;6742;48.036;15.780;2022-07-23T06:07:57;8.60;;;7.90;;
13345;SDS011;6742;48.036;15.780;2022-07-23T06:10:26;8.53;;;7.73;;
13345;SDS011;6742;48.036;15.780;2022-07-23T06:12:53;9.03;;;6.87;;
13345;SDS011;6742;48.036;15.780;2022-07-23T06:15:22;7.80;;;7.10;;
13345;SDS011;6742;48.036;15.780;2022-07-23T06:17:49;7.03;;;6.43;;
13345;SDS011;6742;48.036;15.780;2022-07-23T06:20:16;6.37;;;5.80;;
13345;SDS011;6742;48.036;15.780;2022-07-23T06:22:43;6.47;;;5.97;;
13345;SDS011;6742;48.036;15.780;2022-07-23T06:25:10;6.37;;;5.87;;
13345;SDS011;6742;48.036;15.780;2022-07-23T06:27:37;7.07;;;6.37;;
13345;SDS011;6742;48.036;15.780;2022-07-23T06:30:05;7.33;;;6.63;;
13345;SDS011;6742;48.036;15.780;2022-07-23T06:32:34;7.13;;;6.53;;
13345;SDS011;6742;48.036;15.780;2022-07-23T06:35:01;6.83;;;6.33;;
13345;SDS011;6742;48.036;15.780;2022-07-23T06:37:29;7.67;;;6.97;;
13345;SDS011;6742;48.036;15.780;2022-07-23T06:39:56;6.80;;;6.20;;
13345;SDS011;6742;48.036;15.780;2022-07-23T06:42:23;7.33;;;6.73;;
13345;SDS011;6742;48.036;15.780;2022-07-23T06:44:50;7.20;;;6.60;;
13345;SDS011;6742;48.036;15.780;2022-07-23T06:47:17;7.13;;;6.53;;
13345;SDS011;6742;48.036;15.780;2022-07-23T06:49:45;7.30;;;6.67;;
13345;SDS011;6742;48.036;15.780;2022-07-23T06:52:12;6.30;;;5.80;;
13345;SDS011;6742;48.036;15.780;2022-07-23T06:54:41;6.20;;;5.80;;
13345;SDS011;6742;48.036;15.780;2022-07-23T06:57:08;7.03;;;6.50;;
13345;SDS011;6742;48.036;15.780;2022-07-23T06:59:35;6.40;;;5.80;;
13345;SDS011;6742;48.036;15.780;2022-07-23T07:02:05;5.67;;;5.10;;
13345;SDS011;6742;48.036;15.780;2022-07-23T07:04:33;6.63;;;6.00;;
13345;SDS011;6742;48.036;15.780;2022-07-23T07:07:01;7.07;;;6.47;;
13345;SDS011;6742;48.036;15.780;2022-07-23T07:09:28;6.43;;;5.80;;
13345;SDS011;6742;48.036;15.780;2022-07-23T07:11:55;6.30;;;5.80;;
13345;SDS011;6742;48.036;15.780;2022-07-23T07:14:22;5.90;;;5.40;;
13345;SDS011;6742;48.036;15.780;2022-07-23T07:16:49;6.70;;;6.10;;
13345;SDS011;6742;48.036;15.780;2022-07-23T07:19:16;6.00;;;5.57;;
13345;SDS011;6742;48.036;15.780;2022-07-23T07:21:43;7.37;;;5.40;;
13345;SDS011;6742;48.036;15.780;2022-07-23T07:24:12;6.10;;;5.60;;
13345;SDS011;6742;48.036;15.780;2022-07-23T07:26:39;6.20;;;5.60;;
13345;SDS011;6742;48.036;15.780;2022-07-23T07:29:06;6.00;;;5.40;;
13345;SDS011;6742;48.036;15.780;2022-07-23T07:31:33;5.60;;;5.17;;
13345;SDS011;6742;48.036;15.780;2022-07-23T07:33:59;5.70;;;5.27;;
13345;SDS011;6742;48.036;15.780;2022-07-23T07:36:26;6.53;;;5.73;;
13345;SDS011;6742;48.036;15.780;2022-07-23T07:38:53;5.87;;;5.27;;
13345;SDS011;6742;48.036;15.780;2022-07-23T07:41:22;5.87;;;5.33;;
13345;SDS011;6742;48.036;15.780;2022-07-23T07:43:51;5.57;;;5.17;;
13345;SDS011;6742;48.036;15.780;2022-07-23T07:46:18;6.00;;;5.40;;
13345;SDS011;6742;48.036;15.780;2022-07-23T07:48:45;5.83;;;5.30;;
13345;SDS011;6742;48.036;15.780;2022-07-23T07:51:12;6.00;;;5.40;;
13345;SDS011;6742;48.036;15.780;2022-07-23T07:53:39;6.00;;;5.47;;
13345;SDS011;6742;48.036;15.780;2022-07-23T07:56:06;5.70;;;5.20;;
13345;SDS011;6742;48.036;15.780;2022-07-23T07:58:35;6.40;;;5.90;;
13345;SDS011;6742;48.036;15.780;2022-07-23T08:01:02;5.47;;;5.07;;
13345;SDS011;6742;48.036;15.780;2022-07-23T08:03:29;5.63;;;5.10;;
13345;SDS011;6742;48.036;15.780;2022-07-23T08:05:56;5.67;;;5.17;;
13345;SDS011;6742;48.036;15.780;2022-07-23T08:08:23;5.70;;;5.20;;
13345;SDS011;6742;48.036;15.780;2022-07-23T08:10:50;5.77;;;5.17;;
13345;SDS011;6742;48.036;15.780;2022-07-23T08:13:17;5.73;;;5.33;;
13345;SDS011;6742;48.036;15.780;2022-07-23T08:15:46;6.22;;;5.65;;
13345;SDS011;6742;48.036;15.780;2022-07-23T08:18:13;6.22;;;5.63;;
13345;SDS011;6742;48.036;15.780;2022-07-23T08:20:40;5.65;;;5.13;;
13345;SDS011;6742;48.036;15.780;2022-07-23T08:23:07;5.43;;;5.03;;
13345;SDS011;6742;48.036;15.780;2022-07-23T08:25:38;6.18;;;5.68;;
13345;SDS011;6742;48.036;15.780;2022-07-23T08:28:06;6.40;;;5.88;;
13345;SDS011;6742;48.036;15.780;2022-07-23T08:30:35;5.32;;;4.93;;
13345;SDS011;6742;48.036;15.780;2022-07-23T08:33:08;5.85;;;5.35;;
13345;SDS011;6742;48.036;15.780;2022-07-23T08:35:38;6.57;;;6.03;;
13345;SDS011;6742;48.036;15.780;2022-07-23T08:38:06;6.80;;;6.20;;
13345;SDS011;6742;48.036;15.780;2022-07-23T08:40:35;6.60;;;5.97;;
13345;SDS011;6742;48.036;15.780;2022-07-23T08:43:06;7.10;;;6.50;;
13345;SDS011;6742;48.036;15.780;2022-07-23T08:45:36;7.18;;;6.57;;
13345;SDS011;6742;48.036;15.780;2022-07-23T08:48:05;6.38;;;5.88;;
13345;SDS011;6742;48.036;15.780;2022-07-23T08:50:34;7.07;;;6.38;;
13345;SDS011;6742;48.036;15.780;2022-07-23T08:53:04;7.82;;;7.15;;
13345;SDS011;6742;48.036;15.780;2022-07-23T08:55:32;7.53;;;6.93;;
13345;SDS011;6742;48.036;15.780;2022-07-23T08:57:59;7.85;;;7.25;;
13345;SDS011;6742;48.036;15.780;2022-07-23T09:00:26;8.15;;;7.53;;
13345;SDS011;6742;48.036;15.780;2022-07-23T09:02:54;7.85;;;7.22;;
13345;SDS011;6742;48.036;15.780;2022-07-23T09:05:23;8.52;;;6.72;;
13345;SDS011;6742;48.036;15.780;2022-07-23T09:08:10;9.27;;;8.13;;
13345;SDS011;6742;48.036;15.780;2022-07-23T09:10:48;7.75;;;7.05;;
13345;SDS011;6742;48.036;15.780;2022-07-23T09:13:27;8.02;;;7.22;;
13345;SDS011;6742;48.036;15.780;2022-07-23T09:16:00;6.80;;;6.22;;
13345;SDS011;6742;48.036;15.780;2022-07-23T09:18:30;7.50;;;6.57;;
13345;SDS011;6742;48.036;15.780;2022-07-23T09:21:12;6.38;;;5.88;;
13345;SDS011;6742;48.036;15.780;2022-07-23T09:23:45;8.80;;;7.68;;
13345;SDS011;6742;48.036;15.780;2022-07-23T09:26:20;9.82;;;8.93;;
13345;SDS011;6742;48.036;15.780;2022-07-23T09:28:50;7.43;;;6.63;;
13345;SDS011;6742;48.036;15.780;2022-07-23T09:31:22;6.80;;;6.30;;
13345;SDS011;6742;48.036;15.780;2022-07-23T09:33:49;7.75;;;6.72;;
13345;SDS011;6742;48.036;15.780;2022-07-23T09:36:27;6.75;;;6.15;;
13345;SDS011;6742;48.036;15.780;2022-07-23T09:38:55;7.32;;;6.63;;
13345;SDS011;6742;48.036;15.780;2022-07-23T09:41:22;6.85;;;6.20;;
13345;SDS011;6742;48.036;15.780;2022-07-23T09:43:54;6.57;;;5.97;;
13345;SDS011;6742;48.036;15.780;2022-07-23T09:46:23;6.45;;;5.85;;
13345;SDS011;6742;48.036;15.780;2022-07-23T09:48:50;6.63;;;6.03;;
13345;SDS011;6742;48.036;15.780;2022-07-23T09:51:18;6.65;;;6.05;;
13345;SDS011;6742;48.036;15.780;2022-07-23T09:53:51;6.50;;;6.00;;
13345;SDS011;6742;48.036;15.780;2022-07-23T09:56:18;6.53;;;5.75;;
13345;SDS011;6742;48.036;15.780;2022-07-23T09:58:46;6.53;;;5.93;;
13345;SDS011;6742;48.036;15.780;2022-07-23T10:01:16;7.00;;;6.30;;
13345;SDS011;6742;48.036;15.780;2022-07-23T10:03:45;6.78;;;6.07;;
13345;SDS011;6742;48.036;15.780;2022-07-23T10:06:13;7.82;;;6.15;;
13345;SDS011;6742;48.036;15.780;2022-07-23T10:08:41;7.40;;;6.68;;
13345;SDS011;6742;48.036;15.780;2022-07-23T10:11:12;7.95;;;7.15;;
13345;SDS011;6742;48.036;15.780;2022-07-23T10:13:40;8.45;;;5.93;;
13345;SDS011;6742;48.036;15.780;2022-07-23T10:16:28;7.07;;;6.40;;
13345;SDS011;6742;48.036;15.780;2022-07-23T10:18:55;5.95;;;5.30;;
13345;SDS011;6742;48.036;15.780;2022-07-23T10:21:24;6.47;;;5.88;;
13345;SDS011;6742;48.036;15.780;2022-07-23T10:23:58;6.10;;;5.63;;
13345;SDS011;6742;48.036;15.780;2022-07-23T10:26:38;6.20;;;5.53;;
13345;SDS011;6742;48.036;15.780;2022-07-23T10:29:13;5.35;;;4.95;;
13345;SDS011;6742;48.036;15.780;2022-07-23T10:31:56;6.10;;;5.60;;
13345;SDS011;6742;48.036;15.780;2022-07-23T10:34:30;5.40;;;5.00;;
13345;SDS011;6742;48.036;15.780;2022-07-23T10:37:07;5.78;;;5.28;;
13345;SDS011;6742;48.036;15.780;2022-07-23T10:39:43;5.95;;;5.40;;
13345;SDS011;6742;48.036;15.780;2022-07-23T10:42:12;6.20;;;5.60;;
13345;SDS011;6742;48.036;15.780;2022-07-23T10:44:40;5.47;;;4.97;;
13345;SDS011;6742;48.036;15.780;2022-07-23T10:47:09;5.88;;;4.95;;
13345;SDS011;6742;48.036;15.780;2022-07-23T10:49:44;6.30;;;5.70;;
13345;SDS011;6742;48.036;15.780;2022-07-23T10:52:24;5.97;;;5.47;;
13345;SDS011;6742;48.036;15.780;2022-07-23T10:54:53;5.63;;;5.13;;
13345;SDS011;6742;48.036;15.780;2022-07-23T10:57:24;5.75;;;5.30;;
13345;SDS011;6742;48.036;15.780;2022-07-23T11:02:40;5.53;;;5.13;;
13345;SDS011;6742;48.036;15.780;2022-07-23T11:05:08;5.47;;;5.07;;
13345;SDS011;6742;48.036;15.780;2022-07-23T11:08:09;6.28;;;5.78;;
13345;SDS011;6742;48.036;15.780;2022-07-23T11:10:51;5.57;;;5.05;;
13345;SDS011;6742;48.036;15.780;2022-07-23T11:13:29;6.47;;;5.88;;
13345;SDS011;6742;48.036;15.780;2022-07-23T11:19:12;5.47;;;5.07;;
13345;SDS011;6742;48.036;15.780;2022-07-23T11:21:42;5.00;;;4.43;;
13345;SDS011;6742;48.036;15.780;2022-07-23T11:24:11;4.80;;;4.40;;
13345;SDS011;6742;48.036;15.780;2022-07-23T11:26:43;4.95;;;4.55;;
13345;SDS011;6742;48.036;15.780;2022-07-23T11:35:17;4.80;;;4.30;;
13345;SDS011;6742;48.036;15.780;2022-07-23T11:37:46;4.77;;;4.27;;
13345;SDS011;6742;48.036;15.780;2022-07-23T11:40:14;4.30;;;3.90;;
13345;SDS011;6742;48.036;15.780;2022-07-23T11:42:53;5.07;;;4.50;;
13345;SDS011;6742;48.036;15.780;2022-07-23T11:45:23;5.40;;;4.90;;
13345;SDS011;6742;48.036;15.780;2022-07-23T11:47:52;4.53;;;4.13;;
13345;SDS011;6742;48.036;15.780;2022-07-23T11:50:24;4.77;;;4.37;;
13345;SDS011;6742;48.036;15.780;2022-07-23T11:52:51;5.80;;;4.60;;
13345;SDS011;6742;48.036;15.780;2022-07-23T11:55:19;5.03;;;4.43;;
13345;SDS011;6742;48.036;15.780;2022-07-23T11:57:46;4.63;;;4.23;;
13345;SDS011;6742;48.036;15.780;2022-07-23T12:00:14;5.50;;;4.97;;
13345;SDS011;6742;48.036;15.780;2022-07-23T12:02:44;6.57;;;4.90;;
13345;SDS011;6742;48.036;15.780;2022-07-23T12:05:13;5.27;;;4.80;;
13345;SDS011;6742;48.036;15.780;2022-07-23T12:07:41;8.83;;;5.10;;
13345;SDS011;6742;48.036;15.780;2022-07-23T12:10:11;5.20;;;4.70;;
13345;SDS011;6742;48.036;15.780;2022-07-23T12:12:41;6.00;;;4.73;;
13345;SDS011;6742;48.036;15.780;2022-07-23T12:15:09;5.10;;;4.70;;
13345;SDS011;6742;48.036;15.780;2022-07-23T12:17:40;5.47;;;4.83;;
13345;SDS011;6742;48.036;15.780;2022-07-23T12:20:11;4.07;;;3.77;;
13345;SDS011;6742;48.036;15.780;2022-07-23T12:22:40;5.30;;;4.73;;
13345;SDS011;6742;48.036;15.780;2022-07-23T12:25:09;5.03;;;4.30;;
13345;SDS011;6742;48.036;15.780;2022-07-23T12:27:37;4.87;;;4.03;;
13345;SDS011;6742;48.036;15.780;2022-07-23T12:30:23;5.37;;;4.40;;
13345;SDS011;6742;48.036;15.780;2022-07-23T12:32:55;4.60;;;4.30;;
13345;SDS011;6742;48.036;15.780;2022-07-23T12:35:30;4.03;;;3.70;;
13345;SDS011;6742;48.036;15.780;2022-07-23T12:38:02;4.30;;;3.90;;
13345;SDS011;6742;48.036;15.780;2022-07-23T12:40:31;4.30;;;3.90;;
13345;SDS011;6742;48.036;15.780;2022-07-23T12:43:02;4.80;;;4.40;;
13345;SDS011;6742;48.036;15.780;2022-07-23T12:45:41;4.43;;;4.03;;
13345;SDS011;6742;48.036;15.780;2022-07-23T12:48:16;4.57;;;4.17;;
13345;SDS011;6742;48.036;15.780;2022-07-23T12:50:49;4.03;;;3.63;;
13345;SDS011;6742;48.036;15.780;2022-07-23T12:53:25;4.73;;;3.53;;
13345;SDS011;6742;48.036;15.780;2022-07-23T12:55:57;4.27;;;3.63;;
13345;SDS011;6742;48.036;15.780;2022-07-23T12:58:26;4.63;;;3.90;;
13345;SDS011;6742;48.036;15.780;2022-07-23T13:01:05;3.73;;;3.43;;
13345;SDS011;6742;48.036;15.780;2022-07-23T13:03:34;5.07;;;3.93;;
13345;SDS011;6742;48.036;15.780;2022-07-23T13:06:05;4.07;;;3.67;;
13345;SDS011;6742;48.036;15.780;2022-07-23T13:08:33;4.70;;;3.97;;
13345;SDS011;6742;48.036;15.780;2022-07-23T13:11:02;4.07;;;3.67;;
13345;SDS011;6742;48.036;15.780;2022-07-23T13:13:30;3.80;;;3.50;;
13345;SDS011;6742;48.036;15.780;2022-07-23T13:15:58;4.07;;;3.77;;
13345;SDS011;6742;48.036;15.780;2022-07-23T13:18:26;4.07;;;3.73;;
13345;SDS011;6742;48.036;15.780;2022-07-23T13:20:54;4.57;;;4.17;;
13345;SDS011;6742;48.036;15.780;2022-07-23T13:23:23;4.53;;;4.13;;
13345;SDS011;6742;48.036;15.780;2022-07-23T13:25:50;4.57;;;4.23;;
13345;SDS011;6742;48.036;15.780;2022-07-23T13:28:19;4.40;;;4.00;;
13345;SDS011;6742;48.036;15.780;2022-07-23T13:30:47;6.60;;;3.93;;
13345;SDS011;6742;48.036;15.780;2022-07-23T13:33:16;4.57;;;4.20;;
13345;SDS011;6742;48.036;15.780;2022-07-23T13:35:43;4.37;;;4.03;;
13345;SDS011;6742;48.036;15.780;2022-07-23T13:38:11;5.07;;;4.30;;
13345;SDS011;6742;48.036;15.780;2022-07-23T13:40:39;5.33;;;4.50;;
13345;SDS011;6742;48.036;15.780;2022-07-23T13:43:08;5.30;;;4.43;;
13345;SDS011;6742;48.036;15.780;2022-07-23T13:45:38;4.87;;;4.43;;
13345;SDS011;6742;48.036;15.780;2022-07-23T13:48:07;4.73;;;4.33;;
13345;SDS011;6742;48.036;15.780;2022-07-23T13:50:35;4.80;;;4.40;;
13345;SDS011;6742;48.036;15.780;2022-07-23T13:53:03;5.23;;;4.73;;
13345;SDS011;6742;48.036;15.780;2022-07-23T13:55:30;11.13;;;4.77;;
13345;SDS011;6742;48.036;15.780;2022-07-23T13:57:59;4.90;;;4.43;;
13345;SDS011;6742;48.036;15.780;2022-07-23T14:00:27;4.67;;;4.27;;
13345;SDS011;6742;48.036;15.780;2022-07-23T14:02:55;4.30;;;4.00;;
13345;SDS011;6742;48.036;15.780;2022-07-23T14:05:22;4.30;;;3.90;;
13345;SDS011;6742;48.036;15.780;2022-07-23T14:07:49;6.80;;;4.87;;
13345;SDS011;6742;48.036;15.780;2022-07-23T14:10:17;4.50;;;4.10;;
13345;SDS011;6742;48.036;15.780;2022-07-23T14:12:45;4.93;;;4.53;;
13345;SDS011;6742;48.036;15.780;2022-07-23T14:15:15;5.00;;;4.53;;
13345;SDS011;6742;48.036;15.780;2022-07-23T14:17:45;4.97;;;4.33;;
13345;SDS011;6742;48.036;15.780;2022-07-23T14:20:13;6.67;;;4.13;;
13345;SDS011;6742;48.036;15.780;2022-07-23T14:22:40;4.57;;;4.17;;
13345;SDS011;6742;48.036;15.780;2022-07-23T14:25:08;7.20;;;4.00;;
13345;SDS011;6742;48.036;15.780;2022-07-23T14:27:35;4.20;;;3.90;;
13345;SDS011;6742;48.036;15.780;2022-07-23T14:30:04;4.00;;;3.70;;
13345;SDS011;6742;48.036;15.780;2022-07-23T14:32:33;4.30;;;3.90;;
13345;SDS011;6742;48.036;15.780;2022-07-23T14:35:00;4.53;;;4.13;;
13345;SDS011;6742;48.036;15.780;2022-07-23T14:37:27;4.53;;;4.13;;
13345;SDS011;6742;48.036;15.780;2022-07-23T14:39:54;4.70;;;3.97;;
13345;SDS011;6742;48.036;15.780;2022-07-23T14:42:21;4.20;;;3.90;;
13345;SDS011;6742;48.036;15.780;2022-07-23T14:44:48;4.33;;;4.03;;
13345;SDS011;6742;48.036;15.780;2022-07-23T14:47:15;4.10;;;3.43;;
13345;SDS011;6742;48.036;15.780;2022-07-23T14:49:43;4.80;;;4.03;;
13345;SDS011;6742;48.036;15.780;2022-07-23T14:52:13;4.40;;;3.83;;
13345;SDS011;6742;48.036;15.780;2022-07-23T14:54:43;5.07;;;4.23;;
13345;SDS011;6742;48.036;15.780;2022-07-23T14:57:10;4.27;;;3.97;;
13345;SDS011;6742;48.036;15.780;2022-07-23T14:59:40;3.80;;;3.50;;